Time,TemperatureF,DewpointF,PressureIn,WindDirection,WindDirectionDegrees,WindSpeedMPH,WindSpeedGustMPH,Humidity,HourlyPrecipIn,Conditions,Clouds,dailyrainin,SoftwareType,DateUTC
2013-02-20 00:01:00,5.0,-8.0,-100.00,NNW,345,4.0,9.0,54,0.00,,,0.00,,2013-02-20 00:01:00,
2013-02-20 00:11:00,5.0,-8.0,-100.00,NNW,345,4.0,9.0,54,0.00,,,0.00,,2013-02-20 00:11:00,
2013-02-20 00:21:00,5.0,-8.0,-100.00,NNW,345,4.0,9.0,54,0.00,,,0.00,,2013-02-20 00:21:00,
2013-02-20 00:31:00,5.0,-8.0,-100.00,NNW,345,4.0,9.0,54,0.00,,,0.00,,2013-02-20 00:31:00,
2013-02-20 16:52:00,10.0,0.0,-100.00,SE,135,2.0,6.0,60,0.00,,,0.00,,2013-02-20 16:52:00,
2013-02-20 17:01:00,10.0,0.0,-100.00,NNE,25,3.0,6.0,58,0.00,,,0.00,,2013-02-20 17:01:00,
2013-02-20 17:11:00,11.0,0.0,-100.00,NNE,25,1.0,6.0,58,0.00,,,0.00,,2013-02-20 17:11:00,
2013-02-20 17:21:00,12.0,0.0,-100.00,NNE,30,2.0,6.0,56,0.00,,,0.00,,2013-02-20 17:21:00,
2013-02-20 17:32:00,13.0,0.0,-100.00,ESE,120,2.0,6.0,55,0.00,,,0.00,,2013-02-20 17:32:00,
2013-02-20 17:41:00,14.0,0.0,-100.00,SSE,155,2.0,5.0,52,0.00,,,0.00,,2013-02-20 17:41:00,
2013-02-20 17:52:00,14.0,0.0,-100.00,North,10,4.0,6.0,51,0.00,,,0.00,,2013-02-20 17:52:00,
2013-02-20 18:02:00,15.0,0.0,-100.00,ENE,60,3.0,4.0,50,0.00,,,0.00,,2013-02-20 18:02:00,
2013-02-20 18:11:00,16.0,0.0,-100.00,SSW,205,2.0,6.0,49,0.00,,,0.00,,2013-02-20 18:11:00,
2013-02-20 18:21:00,14.0,-2.0,-100.00,South,175,2.0,5.0,49,0.00,,,0.00,,2013-02-20 18:21:00,
2013-02-20 18:32:00,15.0,0.0,-100.00,SW,225,2.0,4.0,49,0.00,,,0.00,,2013-02-20 18:32:00,
2013-02-20 18:42:00,15.0,0.0,-100.00,SSW,195,2.0,4.0,48,0.00,,,0.00,,2013-02-20 18:42:00,
2013-02-20 18:51:00,19.0,1.0,-100.00,WSW,255,2.0,4.0,46,0.00,,,0.00,,2013-02-20 18:51:00,
2013-02-20 19:01:00,20.0,1.0,-100.00,West,280,2.0,4.0,43,0.00,,,0.00,,2013-02-20 19:01:00,
2013-02-20 19:11:00,19.0,0.0,-100.00,North,10,3.0,6.0,44,0.00,,,0.00,,2013-02-20 19:11:00,
2013-02-20 19:21:00,17.0,0.0,-100.00,North,10,4.0,6.0,45,0.00,,,0.00,,2013-02-20 19:21:00,
2013-02-20 19:31:00,18.0,0.0,-100.00,WSW,250,2.0,6.0,45,0.00,,,0.00,,2013-02-20 19:31:00,
2013-02-20 19:41:00,17.0,0.0,-100.00,WSW,245,2.0,5.0,44,0.00,,,0.00,,2013-02-20 19:41:00,
2013-02-20 19:51:00,20.0,1.0,-100.00,North,355,2.0,6.0,43,0.00,,,0.00,,2013-02-20 19:51:00,
2013-02-20 20:01:00,20.0,1.0,-100.00,WNW,290,1.0,6.0,43,0.00,,,0.00,,2013-02-20 20:01:00,
2013-02-20 20:11:00,19.0,0.0,-100.00,NNW,345,2.0,6.0,43,0.00,,,0.00,,2013-02-20 20:11:00,
2013-02-20 20:21:00,19.0,0.0,-100.00,NNE,25,4.0,6.0,43,0.00,,,0.00,,2013-02-20 20:21:00,
2013-02-20 20:31:00,19.0,0.0,-100.00,NE,35,4.0,6.0,43,0.00,,,0.00,,2013-02-20 20:31:00,
2013-02-20 20:41:00,19.0,1.0,-100.00,North,10,1.0,7.0,44,0.00,,,0.00,,2013-02-20 20:41:00,
2013-02-20 20:51:00,18.0,0.0,-100.00,NNE,15,6.0,8.0,44,0.00,,,0.00,,2013-02-20 20:51:00,
2013-02-20 21:01:00,19.0,1.0,-100.00,NNE,25,3.0,6.0,45,0.00,,,0.00,,2013-02-20 21:01:00,
2013-02-20 21:11:00,18.0,1.0,-100.00,NE,35,4.0,7.0,45,0.00,,,0.00,,2013-02-20 21:11:00,
2013-02-20 21:21:00,18.0,1.0,-100.00,NNE,15,4.0,7.0,45,0.00,,,0.00,,2013-02-20 21:21:00,
2013-02-20 21:31:00,19.0,1.0,-100.00,NNE,25,6.0,9.0,45,0.00,,,0.00,,2013-02-20 21:31:00,
2013-02-20 21:41:00,19.0,1.0,-100.00,North,5,5.0,7.0,45,0.00,,,0.00,,2013-02-20 21:41:00,
2013-02-20 21:51:00,18.0,1.0,-100.00,NE,40,6.0,9.0,46,0.00,,,0.00,,2013-02-20 21:51:00,
2013-02-20 22:01:00,17.0,0.0,-100.00,NNE,15,4.0,9.0,46,0.00,,,0.00,,2013-02-20 22:01:00,
2013-02-20 22:11:00,17.0,0.0,-100.00,NE,35,5.0,8.0,47,0.00,,,0.00,,2013-02-20 22:11:00,
2013-02-20 22:21:00,17.0,0.0,-100.00,NE,50,4.0,7.0,47,0.00,,,0.00,,2013-02-20 22:21:00,
2013-02-20 22:31:00,16.0,0.0,-100.00,NNE,25,5.0,9.0,48,0.00,,,0.00,,2013-02-20 22:31:00,
2013-02-20 22:42:00,16.0,0.0,-100.00,NNE,15,6.0,9.0,49,0.00,,,0.00,,2013-02-20 22:42:00,
2013-02-20 22:51:00,16.0,0.0,-100.00,NNE,15,6.0,9.0,49,0.00,,,0.00,,2013-02-20 22:51:00,
2013-02-20 23:01:00,16.0,0.0,-100.00,NNE,15,6.0,9.0,49,0.00,,,0.00,,2013-02-20 23:01:00,
2013-02-20 23:12:00,16.0,0.0,-100.00,NNE,15,6.0,9.0,49,0.00,,,0.00,,2013-02-20 23:12:00,
2013-02-20 23:22:00,16.0,0.0,-100.00,NNE,15,6.0,9.0,49,0.00,,,0.00,,2013-02-20 23:22:00,